createdAt,value
2022-12-17T00:02:29.656Z,98432.69
2022-12-17T00:05:15.103Z,98424.09
2022-12-17T00:08:00.435Z,98446.31
2022-12-17T00:10:45.629Z,98431.09
2022-12-17T00:13:41.557Z,98442.94
2022-12-17T00:16:27.355Z,98449.31
2022-12-17T00:19:12.204Z,98442.41
2022-12-17T00:21:57.488Z,98449.97
2022-12-17T00:24:42.741Z,98425.66
2022-12-17T00:27:27.887Z,98439.25
2022-12-17T00:30:13.380Z,98423.31
2022-12-17T00:32:58.516Z,98438.78
2022-12-17T00:35:43.637Z,98441.97
2022-12-17T00:38:36.812Z,98451.34
2022-12-17T00:41:22.423Z,98451.66
2022-12-17T00:44:18.756Z,98401.94
2022-12-17T00:47:03.733Z,98407.91
2022-12-17T00:49:49.111Z,98442.88
2022-12-17T00:52:34.418Z,98430.44
2022-12-17T00:55:19.588Z,98440.81
2022-12-17T00:58:04.884Z,98442.97
2022-12-17T01:00:50.081Z,98420.94
2022-12-17T01:03:35.523Z,98428.47
2022-12-17T01:06:22.114Z,98437.94
2022-12-17T01:09:07.264Z,98412.66
2022-12-17T01:11:52.158Z,98430.03
2022-12-17T01:14:37.204Z,98406.09
2022-12-17T01:17:22.271Z,98396.78
2022-12-17T01:20:07.497Z,98410.25
2022-12-17T01:22:52.657Z,98444.38
2022-12-17T01:25:41.739Z,98416.31
2022-12-17T01:28:26.746Z,98423.59
2022-12-17T01:31:11.847Z,98438.63
2022-12-17T01:33:57.010Z,98429.91
2022-12-17T01:36:42.040Z,98436.19
2022-12-17T01:39:27.387Z,98425.78
2022-12-17T01:42:12.433Z,98403.75
2022-12-17T01:44:57.472Z,98440.03
2022-12-17T01:47:48.738Z,98412.94
2022-12-17T01:50:36.146Z,98412.00
2022-12-17T01:53:24.744Z,98423.88
2022-12-17T01:56:10.988Z,98406.81
2022-12-17T01:58:57.136Z,98416.91
2022-12-17T02:01:42.423Z,98426.31
2022-12-17T02:04:28.372Z,98427.03
2022-12-17T02:07:21.327Z,98411.00
2022-12-17T02:10:13.802Z,98407.50
2022-12-17T02:13:25.224Z,98431.53
2022-12-17T02:16:19.416Z,98401.06
2022-12-17T02:19:12.161Z,98413.56
2022-12-17T02:21:59.483Z,98431.78
2022-12-17T02:24:56.726Z,98432.53
2022-12-17T02:27:42.670Z,98421.50
2022-12-17T02:30:28.884Z,98422.50
2022-12-17T02:33:14.481Z,98411.28
2022-12-17T02:36:10.249Z,98409.88
2022-12-17T02:38:56.804Z,98396.25
2022-12-17T02:41:46.662Z,98408.69
2022-12-17T02:44:34.288Z,98415.72
2022-12-17T02:47:22.926Z,98404.94
2022-12-17T02:50:08.002Z,98355.34
2022-12-17T02:52:57.649Z,98371.13
2022-12-17T02:55:42.856Z,98362.34
2022-12-17T02:58:28.055Z,98381.59
2022-12-17T03:01:13.340Z,98353.06
2022-12-17T03:03:58.296Z,98350.41
2022-12-17T03:06:43.612Z,98356.63
2022-12-17T03:09:28.835Z,98378.78
2022-12-17T03:12:14.009Z,98362.16
2022-12-17T03:14:59.186Z,98353.91
2022-12-17T03:17:44.464Z,98363.47
2022-12-17T03:20:30.004Z,98389.97
2022-12-17T03:23:23.992Z,98377.22
2022-12-17T03:26:09.581Z,98379.34
2022-12-17T03:28:54.731Z,98359.34
2022-12-17T03:31:40.024Z,98387.19
2022-12-17T03:34:25.328Z,98350.56
2022-12-17T03:37:10.483Z,98355.88
2022-12-17T03:39:55.444Z,98374.56
2022-12-17T03:42:40.746Z,98357.28
2022-12-17T03:45:26.559Z,98362.16
2022-12-17T03:48:28.865Z,98381.81
2022-12-17T03:51:14.549Z,98346.53
2022-12-17T03:54:00.189Z,98356.28
2022-12-17T03:56:45.712Z,98379.47
2022-12-17T03:59:31.912Z,98361.97
2022-12-17T04:02:19.774Z,98382.06
2022-12-17T04:05:04.618Z,98332.34
2022-12-17T04:08:03.782Z,98352.75
2022-12-17T04:10:50.112Z,98360.59
2022-12-17T04:13:40.473Z,98358.72
2022-12-17T04:16:26.862Z,98355.03
2022-12-17T04:19:11.889Z,98367.69
2022-12-17T04:21:57.099Z,98368.84
2022-12-17T04:24:42.316Z,98354.44
2022-12-17T04:27:27.348Z,98354.44
2022-12-17T04:30:12.349Z,98318.63
2022-12-17T04:32:57.622Z,98313.75
2022-12-17T04:35:42.777Z,98315.31
2022-12-17T04:38:27.917Z,98326.22
2022-12-17T04:41:13.106Z,98345.94
2022-12-17T04:44:02.789Z,98312.22
2022-12-17T04:46:48.334Z,98344.09
2022-12-17T04:49:33.764Z,98316.19
2022-12-17T04:52:20.689Z,98302.34
2022-12-17T04:55:05.943Z,98328.31
2022-12-17T04:57:51.625Z,98331.59
2022-12-17T05:00:37.384Z,98347.16
2022-12-17T05:03:29.140Z,98344.59
2022-12-17T05:06:25.013Z,98334.28
2022-12-17T05:09:11.620Z,98318.59
2022-12-17T05:11:56.930Z,98336.38
2022-12-17T05:14:42.117Z,98346.28
2022-12-17T05:17:27.483Z,98349.19
2022-12-17T05:20:12.916Z,98349.19
2022-12-17T05:22:57.888Z,98349.81
2022-12-17T05:25:42.849Z,98357.53
2022-12-17T05:28:28.025Z,98345.06
2022-12-17T05:31:14.366Z,98390.44
2022-12-17T05:34:02.494Z,98384.00
2022-12-17T05:36:47.562Z,98392.31
2022-12-17T05:39:32.970Z,98362.63
2022-12-17T05:42:18.172Z,98372.72
2022-12-17T05:45:03.252Z,98374.94
2022-12-17T05:47:49.149Z,98365.53
2022-12-17T05:50:34.500Z,98389.53
2022-12-17T05:53:21.368Z,98341.84
2022-12-17T05:56:11.267Z,98385.00
2022-12-17T05:59:14.614Z,98380.75
2022-12-17T06:01:59.859Z,98373.28
2022-12-17T06:04:45.044Z,98359.03
2022-12-17T06:07:32.854Z,98377.63
2022-12-17T06:10:17.952Z,98376.81
2022-12-17T06:13:03.395Z,98381.69
2022-12-17T06:15:48.744Z,98415.25
2022-12-17T06:18:33.762Z,98378.47
2022-12-17T06:21:19.166Z,98382.22
2022-12-17T06:24:04.259Z,98382.28
2022-12-17T06:26:49.455Z,98379.75
2022-12-17T06:29:34.607Z,98371.25
2022-12-17T06:32:19.881Z,98383.59
2022-12-17T06:35:07.448Z,98389.78
2022-12-17T06:37:52.563Z,98421.34
2022-12-17T06:40:37.908Z,98437.81
2022-12-17T06:43:22.947Z,98439.38
2022-12-17T06:46:10.707Z,98444.44
2022-12-17T06:48:55.631Z,98446.22
2022-12-17T06:51:40.762Z,98425.47
2022-12-17T06:54:25.634Z,98412.00
2022-12-17T06:57:10.767Z,98407.84
2022-12-17T06:59:56.078Z,98400.88
2022-12-17T07:02:41.333Z,98425.69
2022-12-17T07:05:26.935Z,98413.00
2022-12-17T07:08:19.149Z,98419.56
2022-12-17T07:11:04.267Z,98418.00
2022-12-17T07:13:49.428Z,98419.81
2022-12-17T07:16:35.530Z,98451.06
2022-12-17T07:19:25.267Z,98436.97
2022-12-17T07:22:11.990Z,98459.03
2022-12-17T07:24:57.201Z,98423.28
2022-12-17T07:27:42.471Z,98439.19
2022-12-17T07:30:28.146Z,98412.13
2022-12-17T07:33:22.285Z,98442.13
2022-12-17T07:36:07.984Z,98429.72
2022-12-17T07:38:53.248Z,98441.03
2022-12-17T07:41:38.604Z,98436.06
2022-12-17T07:44:24.251Z,98439.81
2022-12-17T07:47:09.304Z,98410.59
2022-12-17T07:49:55.096Z,98414.78
2022-12-17T07:52:40.243Z,98403.81
2022-12-17T07:55:25.886Z,98432.91
2022-12-17T07:58:23.272Z,98393.03
2022-12-17T08:01:08.488Z,98427.25
2022-12-17T08:03:53.689Z,98448.03
2022-12-17T08:06:46.962Z,98422.56
2022-12-17T08:09:32.317Z,98423.41
2022-12-17T08:12:17.326Z,98455.19
2022-12-17T08:15:02.724Z,98441.88
2022-12-17T08:17:47.987Z,98440.13
2022-12-17T08:20:33.502Z,98453.50
2022-12-17T08:23:25.370Z,98479.22
2022-12-17T08:26:10.676Z,98468.59
2022-12-17T08:28:55.929Z,98471.13
2022-12-17T08:31:43.528Z,98449.34
2022-12-17T08:34:28.637Z,98458.44
2022-12-17T08:37:13.718Z,98488.59
2022-12-17T08:39:59.000Z,98459.66
2022-12-17T08:42:44.139Z,98493.47
2022-12-17T08:45:29.178Z,98494.72
2022-12-17T08:48:25.023Z,98498.91
2022-12-17T08:51:10.553Z,98462.88
2022-12-17T08:53:55.696Z,98452.63
2022-12-17T08:56:42.010Z,98500.19
2022-12-17T08:59:27.151Z,98465.81
2022-12-17T09:02:12.439Z,98473.13
2022-12-17T09:05:02.516Z,98476.44
2022-12-17T09:07:47.513Z,98478.97
2022-12-17T09:10:32.487Z,98479.03
2022-12-17T09:13:21.294Z,98457.59
2022-12-17T09:16:11.706Z,98457.38
2022-12-17T09:18:57.190Z,98464.63
2022-12-17T09:21:42.749Z,98508.25
2022-12-17T09:24:28.935Z,98506.22
2022-12-17T09:27:13.774Z,98505.13
2022-12-17T09:29:58.838Z,98474.09
2022-12-17T09:32:43.934Z,98519.06
2022-12-17T09:35:29.080Z,98496.41
2022-12-17T09:38:15.360Z,98479.88
2022-12-17T09:41:06.616Z,98498.72
2022-12-17T09:44:03.957Z,98490.38
2022-12-17T09:46:59.180Z,98492.41
2022-12-17T09:49:46.801Z,98496.16
2022-12-17T09:52:41.248Z,98497.19
2022-12-17T09:56:02.368Z,98507.50
2022-12-17T09:58:48.567Z,98458.94
2022-12-17T10:01:39.424Z,98500.50
2022-12-17T10:04:43.061Z,98482.69
2022-12-17T10:07:33.479Z,98502.25
2022-12-17T10:10:29.730Z,98511.06
2022-12-17T10:13:14.795Z,98473.44
2022-12-17T10:16:01.557Z,98482.19
2022-12-17T10:18:48.075Z,98453.63
2022-12-17T10:21:33.175Z,98456.16
2022-12-17T10:24:27.691Z,98482.13
2022-12-17T10:27:13.646Z,98454.94
2022-12-17T10:30:00.273Z,98429.84
2022-12-17T10:32:45.856Z,98466.06
2022-12-17T10:35:43.228Z,98474.13
2022-12-17T10:38:39.674Z,98415.53
2022-12-17T10:41:39.933Z,98413.03
2022-12-17T10:44:52.440Z,98449.34
2022-12-17T10:47:43.159Z,98465.97
2022-12-17T10:50:31.545Z,98448.50
2022-12-17T10:53:19.519Z,98445.91
2022-12-17T10:56:11.879Z,98457.97
2022-12-17T10:59:03.099Z,98427.31
2022-12-17T11:01:48.738Z,98438.44
2022-12-17T11:04:47.471Z,98451.66
2022-12-17T11:07:55.067Z,98456.56
2022-12-17T11:10:42.869Z,98446.16
2022-12-17T11:13:32.576Z,98444.38
2022-12-17T11:16:18.951Z,98441.28
2022-12-17T11:19:22.884Z,98448.97
2022-12-17T11:22:11.225Z,98450.66
2022-12-17T11:25:39.557Z,98459.16
2022-12-17T11:28:38.332Z,98423.34
2022-12-17T11:31:51.470Z,98460.53
2022-12-17T11:35:04.504Z,98449.06
2022-12-17T11:37:58.552Z,98435.13
2022-12-17T11:40:57.334Z,98460.34
2022-12-17T11:44:11.238Z,98464.53
2022-12-17T11:47:05.605Z,98461.94
2022-12-17T11:50:19.787Z,98451.59
2022-12-17T11:53:13.652Z,98455.16
2022-12-17T11:56:19.038Z,98436.94
2022-12-17T11:59:41.556Z,98444.66
2022-12-17T12:02:51.493Z,98432.59
2022-12-17T12:06:19.936Z,98440.50
2022-12-17T12:09:13.933Z,98439.16
2022-12-17T12:12:07.593Z,98427.66
2022-12-17T12:15:04.851Z,98439.53
2022-12-17T12:17:56.863Z,98442.19
2022-12-17T12:21:09.169Z,98447.88
2022-12-17T12:24:12.895Z,98450.56
2022-12-17T12:27:04.313Z,98447.41
2022-12-17T12:30:15.561Z,98449.69
2022-12-17T12:33:09.836Z,98454.63
2022-12-17T12:35:56.994Z,98444.03
2022-12-17T12:38:49.309Z,98452.13
2022-12-17T12:42:05.769Z,98467.34
2022-12-17T12:45:19.620Z,98467.53
2022-12-17T12:48:12.609Z,98468.91
2022-12-17T12:51:09.554Z,98460.41
2022-12-17T12:53:54.964Z,98484.91
2022-12-17T12:56:56.371Z,98477.16
2022-12-17T12:59:49.134Z,98484.09
2022-12-17T13:02:40.288Z,98495.75
2022-12-17T13:05:34.217Z,98497.34
2022-12-17T13:08:03.668Z,98499.19
2022-12-17T13:10:32.666Z,98493.72
2022-12-17T13:13:25.875Z,98462.50
2022-12-17T13:16:02.035Z,98482.09
2022-12-17T13:18:41.424Z,98499.78
2022-12-17T13:21:17.361Z,98482.31
2022-12-17T13:23:44.331Z,98470.41
2022-12-17T13:26:24.736Z,98479.69
2022-12-17T13:28:58.071Z,98476.41
2022-12-17T13:31:31.311Z,98455.94
2022-12-17T13:34:24.013Z,98475.53
2022-12-17T13:36:53.548Z,98464.81
2022-12-17T13:39:42.113Z,98479.88
2022-12-17T13:42:28.933Z,98464.78
2022-12-17T13:44:57.350Z,98476.00
2022-12-17T13:47:28.446Z,98485.31
2022-12-17T13:50:32.262Z,98456.25
2022-12-17T13:52:45.886Z,98435.56
2022-12-17T13:55:23.467Z,98468.38
2022-12-17T13:57:51.689Z,98449.94
2022-12-17T14:00:27.914Z,98475.09
2022-12-17T14:02:55.213Z,98436.16
2022-12-17T14:05:46.425Z,98439.22
2022-12-17T14:08:18.405Z,98464.00
2022-12-17T14:10:52.333Z,98463.16
2022-12-17T14:13:19.154Z,98444.09
2022-12-17T14:15:49.701Z,98461.56
2022-12-17T14:18:19.757Z,98427.31
2022-12-17T14:20:47.705Z,98469.88
2022-12-17T14:23:22.910Z,98481.69
2022-12-17T14:25:49.937Z,98444.78
2022-12-17T14:28:24.391Z,98492.28
2022-12-17T14:31:25.097Z,98482.09
2022-12-17T14:33:38.581Z,98467.75
2022-12-17T14:36:21.519Z,98490.75
2022-12-17T14:38:54.867Z,98480.94
2022-12-17T14:41:43.584Z,98456.28
2022-12-17T14:44:21.683Z,98493.72
2022-12-17T14:46:49.088Z,98497.28
2022-12-17T14:49:19.497Z,98503.47
2022-12-17T14:51:47.528Z,98508.69
2022-12-17T14:54:14.185Z,98499.00
2022-12-17T14:56:42.458Z,98501.91
2022-12-17T14:59:30.371Z,98515.88
2022-12-17T15:01:58.655Z,98519.16
2022-12-17T15:04:25.882Z,98507.41
2022-12-17T15:06:55.241Z,98486.22
2022-12-17T15:09:22.245Z,98533.00
2022-12-17T15:11:49.328Z,98499.44
2022-12-17T15:14:16.067Z,98493.09
2022-12-17T15:16:46.435Z,98522.69
2022-12-17T15:19:13.140Z,98526.22
2022-12-17T15:21:39.893Z,98500.84
2022-12-17T15:24:11.772Z,98538.91
2022-12-17T15:26:38.482Z,98525.38
2022-12-17T15:29:05.346Z,98518.66
2022-12-17T15:31:35.409Z,98512.59
2022-12-17T15:34:02.553Z,98526.94
2022-12-17T15:36:31.869Z,98530.03
2022-12-17T15:38:59.347Z,98508.19
2022-12-17T15:41:44.493Z,98551.41
2022-12-17T15:44:11.146Z,98515.78
2022-12-17T15:46:37.931Z,98562.09
2022-12-17T15:49:04.595Z,98527.25
2022-12-17T15:51:31.304Z,98521.34
2022-12-17T15:53:58.057Z,98545.97
2022-12-17T15:56:26.902Z,98534.44
2022-12-17T15:58:56.274Z,98525.94
2022-12-17T16:01:23.000Z,98535.22
2022-12-17T16:03:49.806Z,98516.13
2022-12-17T16:06:17.290Z,98551.25
2022-12-17T16:08:43.957Z,98544.63
2022-12-17T16:11:12.956Z,98574.94
2022-12-17T16:13:40.897Z,98579.06
2022-12-17T16:16:08.362Z,98575.22
2022-12-17T16:18:36.745Z,98592.94
2022-12-17T16:21:08.656Z,98590.91
2022-12-17T16:23:36.016Z,98552.94
2022-12-17T16:26:04.737Z,98602.25
2022-12-17T16:28:31.495Z,98589.88
2022-12-17T16:31:07.007Z,98595.94
2022-12-17T16:33:39.308Z,98569.06
2022-12-17T16:36:08.024Z,98627.25
2022-12-17T16:38:35.722Z,98607.88
2022-12-17T16:41:03.414Z,98613.13
2022-12-17T16:43:34.144Z,98674.84
2022-12-17T16:46:02.705Z,98670.81
2022-12-17T16:48:37.905Z,98653.25
2022-12-17T16:51:19.881Z,98691.25
2022-12-17T16:53:50.783Z,98679.47
2022-12-17T16:56:20.227Z,98696.69
2022-12-17T16:58:47.085Z,98685.13
2022-12-17T17:01:19.088Z,98689.19
2022-12-17T17:03:46.064Z,98686.75
2022-12-17T17:06:12.922Z,98675.81
2022-12-17T17:08:40.364Z,98663.75
2022-12-17T17:11:21.265Z,98713.75
2022-12-17T17:13:54.114Z,98651.25
2022-12-17T17:16:24.166Z,98646.81
2022-12-17T17:18:51.938Z,98632.38
2022-12-17T17:21:26.332Z,98646.03
2022-12-17T17:24:20.010Z,98578.84
2022-12-17T17:26:48.729Z,98544.31
2022-12-17T17:29:17.113Z,98577.81
2022-12-17T17:32:09.234Z,98544.13
2022-12-17T17:34:30.458Z,98542.25
2022-12-17T17:36:59.123Z,98550.81
2022-12-17T17:39:25.856Z,98531.81
2022-12-17T17:41:52.450Z,98528.16
2022-12-17T17:44:19.241Z,98531.22
2022-12-17T17:46:46.046Z,98542.78
2022-12-17T17:49:12.989Z,98568.97
2022-12-17T17:54:28.328Z,98573.88
2022-12-17T17:56:54.907Z,98560.22
2022-12-17T17:59:24.246Z,98555.38
2022-12-17T18:01:56.076Z,98552.47
2022-12-17T18:04:24.376Z,98556.34
2022-12-17T18:09:38.463Z,98565.16
2022-12-17T18:12:25.324Z,98580.66
2022-12-17T18:15:13.033Z,98581.50
2022-12-17T18:17:40.784Z,98601.09
2022-12-17T18:20:09.630Z,98599.78
2022-12-17T18:22:36.467Z,98581.25
2022-12-17T18:25:03.393Z,98609.13
2022-12-17T18:27:33.105Z,98615.88
2022-12-17T18:29:59.825Z,98605.41
2022-12-17T18:32:26.674Z,98606.91
2022-12-17T18:34:53.435Z,98596.44
2022-12-17T18:37:20.104Z,98621.19
2022-12-17T18:39:47.401Z,98653.44
2022-12-17T18:42:32.954Z,98657.31
2022-12-17T18:44:59.535Z,98675.41
2022-12-17T18:47:26.248Z,98678.13
2022-12-17T18:49:53.322Z,98676.00
2022-12-17T18:52:20.091Z,98692.69
2022-12-17T18:54:46.715Z,98680.78
2022-12-17T18:57:13.763Z,98747.09
2022-12-17T18:59:41.086Z,98728.63
2022-12-17T19:02:12.799Z,98706.78
2022-12-17T19:04:39.848Z,98749.53
2022-12-17T19:07:07.576Z,98731.81
2022-12-17T19:09:35.862Z,98713.16
2022-12-17T19:12:05.866Z,98754.91
2022-12-17T19:14:32.932Z,98711.53
2022-12-17T19:17:00.374Z,98737.28
2022-12-17T19:19:27.172Z,98680.28
2022-12-17T19:21:55.418Z,98733.44
2022-12-17T19:24:23.220Z,98741.84
2022-12-17T19:26:50.609Z,98768.97
2022-12-17T19:29:19.103Z,98773.16
2022-12-17T19:31:46.085Z,98716.78
2022-12-17T19:34:16.243Z,98774.88
2022-12-17T19:36:43.777Z,98747.56
2022-12-17T19:39:20.624Z,98784.06
2022-12-17T19:41:47.455Z,98770.63
2022-12-17T19:44:16.278Z,98756.00
2022-12-17T19:46:46.724Z,98801.44
2022-12-17T19:49:15.846Z,98791.19
2022-12-17T19:51:44.243Z,98787.56
2022-12-17T19:54:17.454Z,98793.97
2022-12-17T19:56:45.494Z,98784.16
2022-12-17T19:59:13.523Z,98808.13
2022-12-17T20:01:43.863Z,98806.97
2022-12-17T20:04:14.981Z,98817.88
2022-12-17T20:06:43.053Z,98750.53
2022-12-17T20:09:09.846Z,98806.44
2022-12-17T20:11:37.328Z,98762.50
2022-12-17T20:14:08.481Z,98818.06
2022-12-17T20:16:41.681Z,98827.03
2022-12-17T20:19:12.292Z,98828.03
2022-12-17T20:21:39.204Z,98800.72
2022-12-17T20:24:06.192Z,98779.66
2022-12-17T20:26:33.443Z,98807.81
2022-12-17T20:29:00.619Z,98797.38
2022-12-17T20:31:28.022Z,98801.09
2022-12-17T20:33:55.006Z,98831.94
2022-12-17T20:36:22.839Z,98858.06
2022-12-17T20:38:50.313Z,98818.63
2022-12-17T20:41:24.148Z,98842.53
2022-12-17T20:43:51.502Z,98804.81
2022-12-17T20:46:20.128Z,98812.38
2022-12-17T20:48:47.578Z,98861.41
2022-12-17T20:51:17.283Z,98835.31
2022-12-17T20:53:45.039Z,98821.31
2022-12-17T20:56:14.652Z,98861.13
2022-12-17T20:58:42.983Z,98861.41
2022-12-17T21:01:21.928Z,98864.97
2022-12-17T21:03:51.276Z,98860.75
2022-12-17T21:06:19.866Z,98856.53
2022-12-17T21:08:51.127Z,98834.81
2022-12-17T21:11:24.650Z,98836.50
2022-12-17T21:13:52.122Z,98835.16
2022-12-17T21:16:22.803Z,98836.66
2022-12-17T21:18:49.722Z,98846.59
2022-12-17T21:21:22.338Z,98878.44
2022-12-17T21:23:50.153Z,98871.72
2022-12-17T21:26:31.718Z,98862.97
2022-12-17T21:28:58.373Z,98887.22
2022-12-17T21:31:35.523Z,98893.13
2022-12-17T21:34:05.508Z,98860.06
2022-12-17T21:36:33.603Z,98867.63
2022-12-17T21:39:00.612Z,98837.53
2022-12-17T21:41:33.991Z,98809.13
2022-12-17T21:44:04.623Z,98789.72
2022-12-17T21:46:31.815Z,98818.75
2022-12-17T21:49:00.127Z,98825.78
2022-12-17T21:51:27.884Z,98843.59
2022-12-17T21:53:57.821Z,98835.44
2022-12-17T21:56:24.576Z,98804.59
2022-12-17T21:58:57.072Z,98836.88
2022-12-17T22:01:26.645Z,98837.94
2022-12-17T22:03:57.174Z,98833.66
2022-12-17T22:06:29.267Z,98782.88
2022-12-17T22:09:04.759Z,98817.50
2022-12-17T22:11:35.293Z,98782.69
2022-12-17T22:14:07.475Z,98821.75
2022-12-17T22:16:46.814Z,98856.50
2022-12-17T22:19:16.321Z,98828.53
2022-12-17T22:21:45.520Z,98844.03
2022-12-17T22:24:20.435Z,98829.06
2022-12-17T22:26:47.549Z,98851.50
2022-12-17T22:29:34.707Z,98848.34
2022-12-17T22:32:20.270Z,98831.50
2022-12-17T22:34:54.839Z,98817.19
2022-12-17T22:39:15.846Z,98824.13
2022-12-17T22:44:30.506Z,98845.81
2022-12-17T22:44:44.735Z,98832.88
2022-12-17T22:46:16.681Z,98857.22
2022-12-17T22:48:43.460Z,98852.03
2022-12-17T22:51:12.174Z,98847.94
2022-12-17T22:53:42.737Z,98843.44
2022-12-17T22:56:20.052Z,98816.63
2022-12-17T22:58:57.228Z,98863.09
2022-12-17T23:01:24.259Z,98869.16
2022-12-17T23:03:55.773Z,98872.53
2022-12-17T23:06:23.285Z,98869.84
2022-12-17T23:08:50.093Z,98829.38
2022-12-17T23:11:20.109Z,98852.28
2022-12-17T23:13:47.102Z,98820.59
2022-12-17T23:16:16.175Z,98870.81
2022-12-17T23:18:44.512Z,98873.25
2022-12-17T23:21:21.196Z,98884.81
2022-12-17T23:23:48.224Z,98902.84
2022-12-17T23:26:21.167Z,98900.84
2022-12-17T23:28:48.541Z,98886.78
2022-12-17T23:31:20.762Z,98906.47
2022-12-17T23:33:47.585Z,98892.59
2022-12-17T23:36:19.841Z,98932.06
2022-12-17T23:38:47.499Z,98924.16
2022-12-17T23:41:17.511Z,98941.50
2022-12-17T23:43:44.758Z,98952.50
2022-12-17T23:46:12.553Z,98928.91
2022-12-17T23:48:45.560Z,98931.84
2022-12-17T23:51:14.646Z,98937.06
2022-12-17T23:53:42.653Z,98945.50
2022-12-17T23:56:11.316Z,98977.88
2022-12-17T23:58:39.544Z,98969.81
